sensor_id;sensor_type;location;lat;lon;timestamp;temperature;humidity
11264;DHT22;5689;48.798;9.070;2024-03-17T00:00:21;6.40;99.90
11264;DHT22;5689;48.798;9.070;2024-03-17T00:02:48;6.60;99.90
11264;DHT22;5689;48.798;9.070;2024-03-17T00:05:14;6.40;99.90
11264;DHT22;5689;48.798;9.070;2024-03-17T00:07:42;6.30;99.90
11264;DHT22;5689;48.798;9.070;2024-03-17T00:10:09;6.20;99.90
11264;DHT22;5689;48.798;9.070;2024-03-17T00:12:36;6.30;99.90
11264;DHT22;5689;48.798;9.070;2024-03-17T00:15:03;6.30;99.90
11264;DHT22;5689;48.798;9.070;2024-03-17T00:17:30;6.40;99.90
11264;DHT22;5689;48.798;9.070;2024-03-17T00:19:56;6.30;99.90
11264;DHT22;5689;48.798;9.070;2024-03-17T00:22:23;6.50;99.90
11264;DHT22;5689;48.798;9.070;2024-03-17T00:24:51;6.40;99.90
11264;DHT22;5689;48.798;9.070;2024-03-17T00:27:18;6.30;99.90
11264;DHT22;5689;48.798;9.070;2024-03-17T00:29:45;6.30;99.90
11264;DHT22;5689;48.798;9.070;2024-03-17T00:32:11;6.20;99.90
11264;DHT22;5689;48.798;9.070;2024-03-17T00:34:37;6.20;99.90
11264;DHT22;5689;48.798;9.070;2024-03-17T00:37:04;6.20;99.90
11264;DHT22;5689;48.798;9.070;2024-03-17T00:39:30;6.20;99.90
11264;DHT22;5689;48.798;9.070;2024-03-17T00:41:59;6.20;99.90
11264;DHT22;5689;48.798;9.070;2024-03-17T00:44:25;6.30;99.90
11264;DHT22;5689;48.798;9.070;2024-03-17T00:46:53;6.20;99.90
11264;DHT22;5689;48.798;9.070;2024-03-17T00:49:18;6.10;99.90
11264;DHT22;5689;48.798;9.070;2024-03-17T00:51:45;6.00;99.90
11264;DHT22;5689;48.798;9.070;2024-03-17T00:54:13;6.20;99.90
11264;DHT22;5689;48.798;9.070;2024-03-17T00:56:40;6.20;99.90
11264;DHT22;5689;48.798;9.070;2024-03-17T00:59:07;6.10;99.90
11264;DHT22;5689;48.798;9.070;2024-03-17T01:01:34;6.30;99.90
11264;DHT22;5689;48.798;9.070;2024-03-17T01:04:00;6.30;99.90
11264;DHT22;5689;48.798;9.070;2024-03-17T01:06:30;6.10;99.90
11264;DHT22;5689;48.798;9.070;2024-03-17T01:08:58;6.20;99.90
11264;DHT22;5689;48.798;9.070;2024-03-17T01:11:25;6.00;99.90
11264;DHT22;5689;48.798;9.070;2024-03-17T01:13:51;5.90;99.90
11264;DHT22;5689;48.798;9.070;2024-03-17T01:16:19;6.00;99.90
11264;DHT22;5689;48.798;9.070;2024-03-17T01:18:45;5.90;99.90
11264;DHT22;5689;48.798;9.070;2024-03-17T01:21:12;5.90;99.90
11264;DHT22;5689;48.798;9.070;2024-03-17T01:23:38;6.00;99.90
11264;DHT22;5689;48.798;9.070;2024-03-17T01:26:05;6.00;99.90
11264;DHT22;5689;48.798;9.070;2024-03-17T01:28:31;6.20;99.90
11264;DHT22;5689;48.798;9.070;2024-03-17T01:30:58;6.00;99.90
11264;DHT22;5689;48.798;9.070;2024-03-17T01:33:25;5.90;99.90
11264;DHT22;5689;48.798;9.070;2024-03-17T01:35:52;5.90;99.90
11264;DHT22;5689;48.798;9.070;2024-03-17T01:38:18;5.90;99.90
11264;DHT22;5689;48.798;9.070;2024-03-17T01:40:45;5.90;99.90
11264;DHT22;5689;48.798;9.070;2024-03-17T01:43:12;5.70;99.90
11264;DHT22;5689;48.798;9.070;2024-03-17T01:45:38;5.80;99.90
11264;DHT22;5689;48.798;9.070;2024-03-17T01:48:11;5.80;99.90
11264;DHT22;5689;48.798;9.070;2024-03-17T01:50:40;6.00;99.90
11264;DHT22;5689;48.798;9.070;2024-03-17T01:53:09;5.90;99.90
11264;DHT22;5689;48.798;9.070;2024-03-17T01:55:38;5.90;99.90
11264;DHT22;5689;48.798;9.070;2024-03-17T01:58:05;5.80;99.90
11264;DHT22;5689;48.798;9.070;2024-03-17T02:00:33;5.70;99.90
11264;DHT22;5689;48.798;9.070;2024-03-17T02:03:02;5.60;99.90
11264;DHT22;5689;48.798;9.070;2024-03-17T02:05:28;5.60;99.90
11264;DHT22;5689;48.798;9.070;2024-03-17T02:07:56;5.60;99.90
11264;DHT22;5689;48.798;9.070;2024-03-17T02:10:23;5.60;99.90
11264;DHT22;5689;48.798;9.070;2024-03-17T02:12:51;5.70;99.90
11264;DHT22;5689;48.798;9.070;2024-03-17T02:15:17;5.70;99.90
11264;DHT22;5689;48.798;9.070;2024-03-17T02:17:44;5.70;99.90
11264;DHT22;5689;48.798;9.070;2024-03-17T02:20:11;5.80;99.90
11264;DHT22;5689;48.798;9.070;2024-03-17T02:22:41;5.80;99.90
11264;DHT22;5689;48.798;9.070;2024-03-17T02:25:07;5.80;99.90
11264;DHT22;5689;48.798;9.070;2024-03-17T02:27:34;5.80;99.90
11264;DHT22;5689;48.798;9.070;2024-03-17T02:30:02;5.80;99.90
11264;DHT22;5689;48.798;9.070;2024-03-17T02:32:30;5.70;99.90
11264;DHT22;5689;48.798;9.070;2024-03-17T02:34:56;5.70;99.90
11264;DHT22;5689;48.798;9.070;2024-03-17T02:37:23;5.80;99.90
11264;DHT22;5689;48.798;9.070;2024-03-17T02:39:51;5.80;99.90
11264;DHT22;5689;48.798;9.070;2024-03-17T02:42:18;5.90;99.90
11264;DHT22;5689;48.798;9.070;2024-03-17T02:44:45;5.90;99.90
11264;DHT22;5689;48.798;9.070;2024-03-17T02:47:12;5.80;99.90
11264;DHT22;5689;48.798;9.070;2024-03-17T02:49:40;5.80;99.90
11264;DHT22;5689;48.798;9.070;2024-03-17T02:52:10;5.70;99.90
11264;DHT22;5689;48.798;9.070;2024-03-17T02:54:38;5.80;99.90
11264;DHT22;5689;48.798;9.070;2024-03-17T02:57:06;5.70;99.90
11264;DHT22;5689;48.798;9.070;2024-03-17T02:59:33;5.60;99.90
11264;DHT22;5689;48.798;9.070;2024-03-17T03:02:00;5.60;99.90
11264;DHT22;5689;48.798;9.070;2024-03-17T03:04:27;5.60;99.90
11264;DHT22;5689;48.798;9.070;2024-03-17T03:06:54;5.50;99.90
11264;DHT22;5689;48.798;9.070;2024-03-17T03:09:21;5.40;99.90
11264;DHT22;5689;48.798;9.070;2024-03-17T03:11:56;5.40;99.90
11264;DHT22;5689;48.798;9.070;2024-03-17T03:14:25;5.50;99.90
11264;DHT22;5689;48.798;9.070;2024-03-17T03:16:52;5.40;99.90
11264;DHT22;5689;48.798;9.070;2024-03-17T03:19:19;5.30;99.90
11264;DHT22;5689;48.798;9.070;2024-03-17T03:21:46;5.50;99.90
11264;DHT22;5689;48.798;9.070;2024-03-17T03:24:14;5.50;99.90
11264;DHT22;5689;48.798;9.070;2024-03-17T03:26:41;5.40;99.90
11264;DHT22;5689;48.798;9.070;2024-03-17T03:29:07;5.40;99.90
11264;DHT22;5689;48.798;9.070;2024-03-17T03:31:37;5.30;99.90
11264;DHT22;5689;48.798;9.070;2024-03-17T03:34:05;5.30;99.90
11264;DHT22;5689;48.798;9.070;2024-03-17T03:36:34;5.50;99.90
11264;DHT22;5689;48.798;9.070;2024-03-17T03:39:01;5.30;99.90
11264;DHT22;5689;48.798;9.070;2024-03-17T03:41:30;5.20;99.90
11264;DHT22;5689;48.798;9.070;2024-03-17T03:43:58;5.20;99.90
11264;DHT22;5689;48.798;9.070;2024-03-17T03:46:25;5.30;99.90
11264;DHT22;5689;48.798;9.070;2024-03-17T03:48:53;5.20;99.90
11264;DHT22;5689;48.798;9.070;2024-03-17T03:51:21;5.10;99.90
11264;DHT22;5689;48.798;9.070;2024-03-17T03:53:47;5.00;99.90
11264;DHT22;5689;48.798;9.070;2024-03-17T03:56:15;4.90;99.90
11264;DHT22;5689;48.798;9.070;2024-03-17T03:58:42;4.80;99.90
11264;DHT22;5689;48.798;9.070;2024-03-17T04:01:12;4.70;99.90
11264;DHT22;5689;48.798;9.070;2024-03-17T04:03:41;4.70;99.90
11264;DHT22;5689;48.798;9.070;2024-03-17T04:06:10;4.80;99.90
11264;DHT22;5689;48.798;9.070;2024-03-17T04:08:39;4.80;99.90
11264;DHT22;5689;48.798;9.070;2024-03-17T04:11:06;4.80;99.90
11264;DHT22;5689;48.798;9.070;2024-03-17T04:13:34;4.80;99.90
11264;DHT22;5689;48.798;9.070;2024-03-17T04:16:04;5.00;99.90
11264;DHT22;5689;48.798;9.070;2024-03-17T04:18:32;4.80;99.90
11264;DHT22;5689;48.798;9.070;2024-03-17T04:21:02;4.70;99.90
11264;DHT22;5689;48.798;9.070;2024-03-17T04:23:31;4.70;99.90
11264;DHT22;5689;48.798;9.070;2024-03-17T04:25:59;4.70;99.90
11264;DHT22;5689;48.798;9.070;2024-03-17T04:28:26;4.70;99.90
11264;DHT22;5689;48.798;9.070;2024-03-17T04:31:02;4.70;99.90
11264;DHT22;5689;48.798;9.070;2024-03-17T04:33:30;4.70;99.90
11264;DHT22;5689;48.798;9.070;2024-03-17T04:35:57;4.70;99.90
11264;DHT22;5689;48.798;9.070;2024-03-17T04:38:24;4.60;99.90
11264;DHT22;5689;48.798;9.070;2024-03-17T04:40:52;4.70;99.90
11264;DHT22;5689;48.798;9.070;2024-03-17T04:43:25;4.70;99.90
11264;DHT22;5689;48.798;9.070;2024-03-17T04:46:00;4.60;99.90
11264;DHT22;5689;48.798;9.070;2024-03-17T04:48:27;4.40;99.90
11264;DHT22;5689;48.798;9.070;2024-03-17T04:50:54;4.30;99.90
11264;DHT22;5689;48.798;9.070;2024-03-17T04:53:21;4.40;99.90
11264;DHT22;5689;48.798;9.070;2024-03-17T04:55:48;4.60;99.90
11264;DHT22;5689;48.798;9.070;2024-03-17T04:58:16;4.50;99.90
11264;DHT22;5689;48.798;9.070;2024-03-17T05:00:43;4.50;99.90
11264;DHT22;5689;48.798;9.070;2024-03-17T05:03:10;4.50;99.90
11264;DHT22;5689;48.798;9.070;2024-03-17T05:05:37;4.40;99.90
11264;DHT22;5689;48.798;9.070;2024-03-17T05:08:04;4.20;99.90
11264;DHT22;5689;48.798;9.070;2024-03-17T05:10:31;4.20;99.90
11264;DHT22;5689;48.798;9.070;2024-03-17T05:12:58;4.10;99.90
11264;DHT22;5689;48.798;9.070;2024-03-17T05:15:26;4.00;99.90
11264;DHT22;5689;48.798;9.070;2024-03-17T05:17:54;4.00;99.90
11264;DHT22;5689;48.798;9.070;2024-03-17T05:20:21;4.30;99.90
11264;DHT22;5689;48.798;9.070;2024-03-17T05:22:49;4.30;99.90
11264;DHT22;5689;48.798;9.070;2024-03-17T05:25:16;4.40;99.90
11264;DHT22;5689;48.798;9.070;2024-03-17T05:27:43;4.30;99.90
11264;DHT22;5689;48.798;9.070;2024-03-17T05:30:11;4.30;99.90
11264;DHT22;5689;48.798;9.070;2024-03-17T05:32:39;4.30;99.90
11264;DHT22;5689;48.798;9.070;2024-03-17T05:35:06;4.40;99.90
11264;DHT22;5689;48.798;9.070;2024-03-17T05:37:34;4.70;99.90
11264;DHT22;5689;48.798;9.070;2024-03-17T05:40:02;5.00;99.90
11264;DHT22;5689;48.798;9.070;2024-03-17T05:42:29;4.90;99.90
11264;DHT22;5689;48.798;9.070;2024-03-17T05:44:58;4.80;99.90
11264;DHT22;5689;48.798;9.070;2024-03-17T05:47:25;4.70;99.90
11264;DHT22;5689;48.798;9.070;2024-03-17T05:49:53;4.80;99.90
11264;DHT22;5689;48.798;9.070;2024-03-17T05:52:21;4.80;99.90
11264;DHT22;5689;48.798;9.070;2024-03-17T05:54:48;4.90;99.90
11264;DHT22;5689;48.798;9.070;2024-03-17T05:57:15;4.80;99.90
11264;DHT22;5689;48.798;9.070;2024-03-17T05:59:42;4.70;99.90
11264;DHT22;5689;48.798;9.070;2024-03-17T06:02:09;4.70;99.90
11264;DHT22;5689;48.798;9.070;2024-03-17T06:04:36;4.80;99.90
11264;DHT22;5689;48.798;9.070;2024-03-17T06:07:08;4.90;99.90
11264;DHT22;5689;48.798;9.070;2024-03-17T06:09:35;5.00;99.90
11264;DHT22;5689;48.798;9.070;2024-03-17T06:12:02;5.00;99.90
11264;DHT22;5689;48.798;9.070;2024-03-17T06:14:29;4.90;99.90
11264;DHT22;5689;48.798;9.070;2024-03-17T06:16:57;4.80;99.90
11264;DHT22;5689;48.798;9.070;2024-03-17T06:19:23;4.80;99.90
11264;DHT22;5689;48.798;9.070;2024-03-17T06:21:50;5.10;99.90
11264;DHT22;5689;48.798;9.070;2024-03-17T06:24:19;5.10;99.90
11264;DHT22;5689;48.798;9.070;2024-03-17T06:26:46;5.40;99.90
11264;DHT22;5689;48.798;9.070;2024-03-17T06:29:14;5.60;99.90
11264;DHT22;5689;48.798;9.070;2024-03-17T06:31:41;5.60;99.90
11264;DHT22;5689;48.798;9.070;2024-03-17T06:34:08;5.70;99.90
11264;DHT22;5689;48.798;9.070;2024-03-17T06:36:35;5.80;99.90
11264;DHT22;5689;48.798;9.070;2024-03-17T06:39:02;5.90;99.90
11264;DHT22;5689;48.798;9.070;2024-03-17T06:41:30;6.00;99.90
11264;DHT22;5689;48.798;9.070;2024-03-17T06:43:57;6.50;99.90
11264;DHT22;5689;48.798;9.070;2024-03-17T06:46:25;7.00;99.90
11264;DHT22;5689;48.798;9.070;2024-03-17T06:48:52;7.50;99.90
11264;DHT22;5689;48.798;9.070;2024-03-17T06:51:24;7.70;99.90
11264;DHT22;5689;48.798;9.070;2024-03-17T06:53:50;8.10;99.90
11264;DHT22;5689;48.798;9.070;2024-03-17T06:56:17;7.80;99.90
11264;DHT22;5689;48.798;9.070;2024-03-17T06:58:46;7.90;99.90
11264;DHT22;5689;48.798;9.070;2024-03-17T07:01:13;7.80;99.90
11264;DHT22;5689;48.798;9.070;2024-03-17T07:03:40;7.50;99.90
11264;DHT22;5689;48.798;9.070;2024-03-17T07:06:07;7.60;99.90
11264;DHT22;5689;48.798;9.070;2024-03-17T07:08:34;8.40;99.90
11264;DHT22;5689;48.798;9.070;2024-03-17T07:11:02;10.20;99.90
11264;DHT22;5689;48.798;9.070;2024-03-17T07:13:31;12.10;99.90
11264;DHT22;5689;48.798;9.070;2024-03-17T07:16:00;12.60;99.90
11264;DHT22;5689;48.798;9.070;2024-03-17T07:18:28;11.30;99.90
11264;DHT22;5689;48.798;9.070;2024-03-17T07:20:56;10.20;99.90
11264;DHT22;5689;48.798;9.070;2024-03-17T07:23:23;9.90;99.90
11264;DHT22;5689;48.798;9.070;2024-03-17T07:25:54;10.90;99.90
11264;DHT22;5689;48.798;9.070;2024-03-17T07:28:22;11.90;99.90
11264;DHT22;5689;48.798;9.070;2024-03-17T07:30:50;12.00;99.90
11264;DHT22;5689;48.798;9.070;2024-03-17T07:33:19;10.60;99.90
11264;DHT22;5689;48.798;9.070;2024-03-17T07:35:50;11.50;99.90
11264;DHT22;5689;48.798;9.070;2024-03-17T07:38:18;12.10;99.90
11264;DHT22;5689;48.798;9.070;2024-03-17T07:40:56;12.60;99.90
11264;DHT22;5689;48.798;9.070;2024-03-17T07:43:23;13.30;99.90
11264;DHT22;5689;48.798;9.070;2024-03-17T07:45:57;13.90;99.90
11264;DHT22;5689;48.798;9.070;2024-03-17T07:48:26;13.10;99.90
11264;DHT22;5689;48.798;9.070;2024-03-17T07:50:56;13.60;99.90
11264;DHT22;5689;48.798;9.070;2024-03-17T07:53:24;15.00;99.90
11264;DHT22;5689;48.798;9.070;2024-03-17T07:55:59;14.20;99.90
11264;DHT22;5689;48.798;9.070;2024-03-17T07:58:27;13.80;99.90
11264;DHT22;5689;48.798;9.070;2024-03-17T08:00:57;11.70;99.90
11264;DHT22;5689;48.798;9.070;2024-03-17T08:03:28;11.00;99.90
11264;DHT22;5689;48.798;9.070;2024-03-17T08:05:55;11.70;99.90
11264;DHT22;5689;48.798;9.070;2024-03-17T08:08:22;11.60;99.90
11264;DHT22;5689;48.798;9.070;2024-03-17T08:10:49;11.80;99.90
11264;DHT22;5689;48.798;9.070;2024-03-17T08:13:16;12.90;99.90
11264;DHT22;5689;48.798;9.070;2024-03-17T08:15:44;13.30;99.90
11264;DHT22;5689;48.798;9.070;2024-03-17T08:18:11;13.40;99.90
11264;DHT22;5689;48.798;9.070;2024-03-17T08:20:40;12.90;99.90
11264;DHT22;5689;48.798;9.070;2024-03-17T08:23:08;11.90;99.90
11264;DHT22;5689;48.798;9.070;2024-03-17T08:25:36;11.90;99.90
11264;DHT22;5689;48.798;9.070;2024-03-17T08:28:04;11.50;99.90
11264;DHT22;5689;48.798;9.070;2024-03-17T08:30:31;11.20;99.90
11264;DHT22;5689;48.798;9.070;2024-03-17T08:32:58;11.20;99.90
11264;DHT22;5689;48.798;9.070;2024-03-17T08:35:25;11.20;99.90
11264;DHT22;5689;48.798;9.070;2024-03-17T08:37:53;11.50;99.90
11264;DHT22;5689;48.798;9.070;2024-03-17T08:40:20;11.90;99.90
11264;DHT22;5689;48.798;9.070;2024-03-17T08:42:48;12.80;99.90
11264;DHT22;5689;48.798;9.070;2024-03-17T08:45:15;13.40;99.90
11264;DHT22;5689;48.798;9.070;2024-03-17T08:47:42;14.10;99.90
11264;DHT22;5689;48.798;9.070;2024-03-17T08:50:09;14.40;99.90
11264;DHT22;5689;48.798;9.070;2024-03-17T08:52:38;13.50;99.90
11264;DHT22;5689;48.798;9.070;2024-03-17T08:55:08;13.60;99.90
11264;DHT22;5689;48.798;9.070;2024-03-17T08:57:39;12.90;99.90
11264;DHT22;5689;48.798;9.070;2024-03-17T09:00:07;13.10;99.90
11264;DHT22;5689;48.798;9.070;2024-03-17T09:02:35;13.80;99.90
11264;DHT22;5689;48.798;9.070;2024-03-17T09:05:02;13.50;99.90
11264;DHT22;5689;48.798;9.070;2024-03-17T09:07:30;13.30;99.90
11264;DHT22;5689;48.798;9.070;2024-03-17T09:09:58;13.40;99.90
11264;DHT22;5689;48.798;9.070;2024-03-17T09:12:26;13.20;99.90
11264;DHT22;5689;48.798;9.070;2024-03-17T09:14:53;13.70;99.90
11264;DHT22;5689;48.798;9.070;2024-03-17T09:17:20;13.20;99.90
11264;DHT22;5689;48.798;9.070;2024-03-17T09:19:47;13.30;99.90
11264;DHT22;5689;48.798;9.070;2024-03-17T09:22:14;13.80;99.90
11264;DHT22;5689;48.798;9.070;2024-03-17T09:24:41;13.90;99.90
11264;DHT22;5689;48.798;9.070;2024-03-17T09:27:08;14.30;99.90
11264;DHT22;5689;48.798;9.070;2024-03-17T09:29:36;14.50;99.90
11264;DHT22;5689;48.798;9.070;2024-03-17T09:32:04;14.00;99.90
11264;DHT22;5689;48.798;9.070;2024-03-17T09:34:31;13.80;99.90
11264;DHT22;5689;48.798;9.070;2024-03-17T09:36:58;13.70;99.90
11264;DHT22;5689;48.798;9.070;2024-03-17T09:39:24;14.40;99.90
11264;DHT22;5689;48.798;9.070;2024-03-17T09:41:51;13.70;99.90
11264;DHT22;5689;48.798;9.070;2024-03-17T09:44:18;13.20;99.90
11264;DHT22;5689;48.798;9.070;2024-03-17T09:46:47;13.70;99.90
11264;DHT22;5689;48.798;9.070;2024-03-17T09:49:15;13.50;99.90
11264;DHT22;5689;48.798;9.070;2024-03-17T09:51:42;13.30;99.90
11264;DHT22;5689;48.798;9.070;2024-03-17T09:54:17;13.50;99.90
11264;DHT22;5689;48.798;9.070;2024-03-17T09:56:45;13.40;99.90
11264;DHT22;5689;48.798;9.070;2024-03-17T09:59:13;12.90;99.90
11264;DHT22;5689;48.798;9.070;2024-03-17T10:01:40;13.30;99.90
11264;DHT22;5689;48.798;9.070;2024-03-17T10:04:09;13.90;99.90
11264;DHT22;5689;48.798;9.070;2024-03-17T10:06:45;13.90;99.90
11264;DHT22;5689;48.798;9.070;2024-03-17T10:09:15;13.80;99.90
11264;DHT22;5689;48.798;9.070;2024-03-17T10:11:47;13.60;99.90
11264;DHT22;5689;48.798;9.070;2024-03-17T10:14:17;14.30;99.90
11264;DHT22;5689;48.798;9.070;2024-03-17T10:16:44;14.20;99.90
11264;DHT22;5689;48.798;9.070;2024-03-17T10:19:14;14.60;99.90
11264;DHT22;5689;48.798;9.070;2024-03-17T10:21:42;14.10;99.90
11264;DHT22;5689;48.798;9.070;2024-03-17T10:24:10;13.90;99.90
11264;DHT22;5689;48.798;9.070;2024-03-17T10:26:48;13.70;99.90
11264;DHT22;5689;48.798;9.070;2024-03-17T10:29:21;13.90;99.90
11264;DHT22;5689;48.798;9.070;2024-03-17T10:31:51;13.60;99.90
11264;DHT22;5689;48.798;9.070;2024-03-17T10:34:20;13.40;99.90
11264;DHT22;5689;48.798;9.070;2024-03-17T10:36:50;13.40;99.90
11264;DHT22;5689;48.798;9.070;2024-03-17T10:39:25;13.60;99.90
11264;DHT22;5689;48.798;9.070;2024-03-17T10:41:57;13.90;99.90
11264;DHT22;5689;48.798;9.070;2024-03-17T10:44:25;13.90;99.90
11264;DHT22;5689;48.798;9.070;2024-03-17T10:46:53;13.90;99.90
11264;DHT22;5689;48.798;9.070;2024-03-17T10:49:24;14.10;99.90
11264;DHT22;5689;48.798;9.070;2024-03-17T10:51:57;14.90;99.90
11264;DHT22;5689;48.798;9.070;2024-03-17T10:54:25;16.50;98.60
11264;DHT22;5689;48.798;9.070;2024-03-17T10:56:55;15.60;98.50
11264;DHT22;5689;48.798;9.070;2024-03-17T10:59:28;15.70;98.60
11264;DHT22;5689;48.798;9.070;2024-03-17T11:01:59;15.30;98.40
11264;DHT22;5689;48.798;9.070;2024-03-17T11:04:30;14.80;99.90
11264;DHT22;5689;48.798;9.070;2024-03-17T11:06:57;14.80;99.60
11264;DHT22;5689;48.798;9.070;2024-03-17T11:09:26;15.00;99.10
11264;DHT22;5689;48.798;9.070;2024-03-17T11:11:54;14.90;98.00
11264;DHT22;5689;48.798;9.070;2024-03-17T11:14:21;15.30;98.90
11264;DHT22;5689;48.798;9.070;2024-03-17T11:16:49;16.20;97.40
11264;DHT22;5689;48.798;9.070;2024-03-17T11:19:17;16.70;96.50
11264;DHT22;5689;48.798;9.070;2024-03-17T11:21:45;17.20;95.10
11264;DHT22;5689;48.798;9.070;2024-03-17T11:24:20;15.90;97.20
11264;DHT22;5689;48.798;9.070;2024-03-17T11:26:47;17.90;95.50
11264;DHT22;5689;48.798;9.070;2024-03-17T11:29:28;20.30;86.80
11264;DHT22;5689;48.798;9.070;2024-03-17T11:31:55;19.60;90.00
11264;DHT22;5689;48.798;9.070;2024-03-17T11:34:30;18.20;91.60
11264;DHT22;5689;48.798;9.070;2024-03-17T11:36:59;17.80;90.90
11264;DHT22;5689;48.798;9.070;2024-03-17T11:39:51;17.90;91.80
11264;DHT22;5689;48.798;9.070;2024-03-17T11:42:25;17.10;92.10
11264;DHT22;5689;48.798;9.070;2024-03-17T11:44:57;16.60;93.50
11264;DHT22;5689;48.798;9.070;2024-03-17T11:47:39;16.20;93.30
11264;DHT22;5689;48.798;9.070;2024-03-17T11:50:08;15.40;93.80
11264;DHT22;5689;48.798;9.070;2024-03-17T11:52:37;15.40;94.90
11264;DHT22;5689;48.798;9.070;2024-03-17T11:55:15;15.50;95.20
11264;DHT22;5689;48.798;9.070;2024-03-17T11:57:41;15.70;95.40
11264;DHT22;5689;48.798;9.070;2024-03-17T12:00:19;15.70;95.80
11264;DHT22;5689;48.798;9.070;2024-03-17T12:02:48;15.70;94.80
11264;DHT22;5689;48.798;9.070;2024-03-17T12:05:15;15.80;94.70
11264;DHT22;5689;48.798;9.070;2024-03-17T12:07:43;15.80;93.60
11264;DHT22;5689;48.798;9.070;2024-03-17T12:10:11;16.30;93.40
11264;DHT22;5689;48.798;9.070;2024-03-17T12:12:39;15.80;93.50
11264;DHT22;5689;48.798;9.070;2024-03-17T12:15:17;15.60;94.30
11264;DHT22;5689;48.798;9.070;2024-03-17T12:17:43;15.40;95.10
11264;DHT22;5689;48.798;9.070;2024-03-17T12:20:17;16.10;94.40
11264;DHT22;5689;48.798;9.070;2024-03-17T12:22:45;16.30;94.10
11264;DHT22;5689;48.798;9.070;2024-03-17T12:25:17;16.20;94.00
11264;DHT22;5689;48.798;9.070;2024-03-17T12:27:44;16.90;92.10
11264;DHT22;5689;48.798;9.070;2024-03-17T12:30:12;16.00;94.10
11264;DHT22;5689;48.798;9.070;2024-03-17T12:32:38;16.30;94.00
11264;DHT22;5689;48.798;9.070;2024-03-17T12:35:12;16.40;93.50
11264;DHT22;5689;48.798;9.070;2024-03-17T12:37:39;16.20;93.20
11264;DHT22;5689;48.798;9.070;2024-03-17T12:40:18;17.00;91.90
11264;DHT22;5689;48.798;9.070;2024-03-17T12:42:48;16.40;91.60
11264;DHT22;5689;48.798;9.070;2024-03-17T12:45:19;16.40;92.70
11264;DHT22;5689;48.798;9.070;2024-03-17T12:47:47;16.50;92.50
11264;DHT22;5689;48.798;9.070;2024-03-17T12:50:15;16.00;93.40
11264;DHT22;5689;48.798;9.070;2024-03-17T12:52:46;15.50;92.80
11264;DHT22;5689;48.798;9.070;2024-03-17T12:55:19;15.70;92.80
11264;DHT22;5689;48.798;9.070;2024-03-17T12:58:08;16.60;91.70
11264;DHT22;5689;48.798;9.070;2024-03-17T13:00:57;16.70;92.00
11264;DHT22;5689;48.798;9.070;2024-03-17T13:03:26;16.70;92.50
11264;DHT22;5689;48.798;9.070;2024-03-17T13:05:53;17.00;88.80
11264;DHT22;5689;48.798;9.070;2024-03-17T13:08:20;16.50;88.80
11264;DHT22;5689;48.798;9.070;2024-03-17T13:10:49;16.30;89.70
11264;DHT22;5689;48.798;9.070;2024-03-17T13:13:16;15.80;91.90
11264;DHT22;5689;48.798;9.070;2024-03-17T13:15:43;16.50;89.30
11264;DHT22;5689;48.798;9.070;2024-03-17T13:18:16;16.60;87.90
11264;DHT22;5689;48.798;9.070;2024-03-17T13:20:44;16.90;88.40
11264;DHT22;5689;48.798;9.070;2024-03-17T13:23:12;17.00;88.70
11264;DHT22;5689;48.798;9.070;2024-03-17T13:25:39;16.90;86.70
11264;DHT22;5689;48.798;9.070;2024-03-17T13:28:10;16.90;87.50
11264;DHT22;5689;48.798;9.070;2024-03-17T13:30:37;17.10;87.50
11264;DHT22;5689;48.798;9.070;2024-03-17T13:33:06;17.30;86.40
11264;DHT22;5689;48.798;9.070;2024-03-17T13:35:36;17.60;85.70
11264;DHT22;5689;48.798;9.070;2024-03-17T13:38:05;17.70;85.90
11264;DHT22;5689;48.798;9.070;2024-03-17T13:40:34;17.60;89.60
11264;DHT22;5689;48.798;9.070;2024-03-17T13:43:01;16.70;92.40
11264;DHT22;5689;48.798;9.070;2024-03-17T13:45:34;16.10;92.00
11264;DHT22;5689;48.798;9.070;2024-03-17T13:48:05;15.60;93.60
11264;DHT22;5689;48.798;9.070;2024-03-17T13:50:36;15.40;93.90
11264;DHT22;5689;48.798;9.070;2024-03-17T13:53:04;15.80;93.50
11264;DHT22;5689;48.798;9.070;2024-03-17T13:55:31;15.70;93.50
11264;DHT22;5689;48.798;9.070;2024-03-17T13:57:59;15.80;93.00
11264;DHT22;5689;48.798;9.070;2024-03-17T14:00:30;16.00;92.30
11264;DHT22;5689;48.798;9.070;2024-03-17T14:03:00;15.50;92.30
11264;DHT22;5689;48.798;9.070;2024-03-17T14:05:27;15.80;93.10
11264;DHT22;5689;48.798;9.070;2024-03-17T14:07:54;16.30;92.40
11264;DHT22;5689;48.798;9.070;2024-03-17T14:10:24;16.80;91.20
11264;DHT22;5689;48.798;9.070;2024-03-17T14:12:51;16.80;91.80
11264;DHT22;5689;48.798;9.070;2024-03-17T14:15:19;17.40;90.10
11264;DHT22;5689;48.798;9.070;2024-03-17T14:17:48;17.90;89.20
11264;DHT22;5689;48.798;9.070;2024-03-17T14:20:16;16.80;88.30
11264;DHT22;5689;48.798;9.070;2024-03-17T14:22:45;16.40;90.30
11264;DHT22;5689;48.798;9.070;2024-03-17T14:25:15;17.30;90.90
11264;DHT22;5689;48.798;9.070;2024-03-17T14:27:42;18.00;90.20
11264;DHT22;5689;48.798;9.070;2024-03-17T14:30:13;16.90;91.30
11264;DHT22;5689;48.798;9.070;2024-03-17T14:32:41;17.30;91.10
11264;DHT22;5689;48.798;9.070;2024-03-17T14:35:13;17.60;90.30
11264;DHT22;5689;48.798;9.070;2024-03-17T14:37:41;16.40;92.30
11264;DHT22;5689;48.798;9.070;2024-03-17T14:40:14;16.70;92.20
11264;DHT22;5689;48.798;9.070;2024-03-17T14:42:46;16.90;91.10
11264;DHT22;5689;48.798;9.070;2024-03-17T14:45:13;16.70;91.70
11264;DHT22;5689;48.798;9.070;2024-03-17T14:47:40;16.60;91.90
11264;DHT22;5689;48.798;9.070;2024-03-17T14:50:08;16.90;91.20
11264;DHT22;5689;48.798;9.070;2024-03-17T14:52:36;16.70;91.60
11264;DHT22;5689;48.798;9.070;2024-03-17T14:55:03;16.20;91.90
11264;DHT22;5689;48.798;9.070;2024-03-17T14:57:31;16.10;91.80
11264;DHT22;5689;48.798;9.070;2024-03-17T14:59:58;16.70;91.50
11264;DHT22;5689;48.798;9.070;2024-03-17T15:02:26;17.30;90.60
11264;DHT22;5689;48.798;9.070;2024-03-17T15:04:53;17.40;90.20
11264;DHT22;5689;48.798;9.070;2024-03-17T15:07:20;18.70;88.00
11264;DHT22;5689;48.798;9.070;2024-03-17T15:09:50;17.90;87.50
11264;DHT22;5689;48.798;9.070;2024-03-17T15:12:17;16.60;90.90
11264;DHT22;5689;48.798;9.070;2024-03-17T15:14:46;17.10;90.20
11264;DHT22;5689;48.798;9.070;2024-03-17T15:17:13;16.90;90.90
11264;DHT22;5689;48.798;9.070;2024-03-17T15:19:41;16.60;91.00
11264;DHT22;5689;48.798;9.070;2024-03-17T15:22:09;16.70;90.50
11264;DHT22;5689;48.798;9.070;2024-03-17T15:24:36;15.70;91.50
11264;DHT22;5689;48.798;9.070;2024-03-17T15:27:04;15.30;92.50
11264;DHT22;5689;48.798;9.070;2024-03-17T15:29:32;15.00;92.80
11264;DHT22;5689;48.798;9.070;2024-03-17T15:31:58;14.70;93.80
11264;DHT22;5689;48.798;9.070;2024-03-17T15:34:25;14.50;94.30
11264;DHT22;5689;48.798;9.070;2024-03-17T15:36:53;14.80;94.60
11264;DHT22;5689;48.798;9.070;2024-03-17T15:39:20;14.70;94.40
11264;DHT22;5689;48.798;9.070;2024-03-17T15:41:47;14.40;95.00
11264;DHT22;5689;48.798;9.070;2024-03-17T15:44:15;14.20;94.40
11264;DHT22;5689;48.798;9.070;2024-03-17T15:46:42;14.30;95.20
11264;DHT22;5689;48.798;9.070;2024-03-17T15:49:09;14.50;94.50
11264;DHT22;5689;48.798;9.070;2024-03-17T15:51:36;14.50;94.50
11264;DHT22;5689;48.798;9.070;2024-03-17T15:54:03;14.40;95.00
11264;DHT22;5689;48.798;9.070;2024-03-17T15:56:32;14.30;95.30
11264;DHT22;5689;48.798;9.070;2024-03-17T15:58:59;14.40;94.80